createdAt,value
2022-08-26T00:02:12.291Z,99037.53
2022-08-26T00:04:57.206Z,99038.16
2022-08-26T00:07:42.120Z,99040.56
2022-08-26T00:10:28.664Z,99032.00
2022-08-26T00:13:13.755Z,99036.19
2022-08-26T00:15:58.965Z,99034.63
2022-08-26T00:18:44.502Z,99030.97
2022-08-26T00:21:29.477Z,99028.28
2022-08-26T00:24:15.683Z,99021.41
2022-08-26T00:27:00.464Z,99022.09
2022-08-26T00:29:45.645Z,99027.72
2022-08-26T00:32:30.926Z,99023.22
2022-08-26T00:35:16.446Z,99027.31
2022-08-26T00:38:02.603Z,99024.91
2022-08-26T00:40:54.547Z,99031.34
2022-08-26T00:43:47.174Z,99031.25
2022-08-26T00:46:46.578Z,99033.28
2022-08-26T00:49:42.457Z,99038.53
2022-08-26T00:52:28.007Z,99036.22
2022-08-26T00:55:21.497Z,99030.69
2022-08-26T00:58:08.167Z,99031.75
2022-08-26T01:00:53.949Z,99033.13
2022-08-26T01:03:40.336Z,99033.38
2022-08-26T01:06:26.649Z,99027.09
2022-08-26T01:09:12.375Z,99023.50
2022-08-26T01:12:01.568Z,99022.31
2022-08-26T01:14:47.431Z,99021.66
2022-08-26T01:17:34.195Z,99025.47
2022-08-26T01:20:34.643Z,99023.00
2022-08-26T01:23:19.632Z,99026.22
2022-08-26T01:26:19.615Z,99024.25
2022-08-26T01:29:08.691Z,99026.22
2022-08-26T01:31:56.049Z,99027.13
2022-08-26T01:34:41.163Z,99024.34
2022-08-26T01:37:32.464Z,99026.47
2022-08-26T01:40:22.970Z,99027.56
2022-08-26T01:43:10.296Z,99025.56
2022-08-26T01:45:56.340Z,99019.63
2022-08-26T01:48:44.482Z,99023.31
2022-08-26T01:51:31.321Z,99025.47
2022-08-26T01:54:15.887Z,99024.00
2022-08-26T01:57:01.319Z,99023.56
2022-08-26T01:59:49.812Z,99023.09
2022-08-26T02:02:35.019Z,99021.59
2022-08-26T02:05:21.557Z,99025.00
2022-08-26T02:08:07.894Z,99023.53
2022-08-26T02:10:54.962Z,99023.00
2022-08-26T02:13:47.576Z,99024.34
2022-08-26T02:16:39.945Z,99017.63
2022-08-26T02:19:32.090Z,99021.03
2022-08-26T02:22:22.577Z,99010.94
2022-08-26T02:25:19.064Z,99022.41
2022-08-26T02:28:04.580Z,99026.34
2022-08-26T02:30:49.763Z,99014.63
2022-08-26T02:33:35.852Z,99018.84
2022-08-26T02:36:23.061Z,99017.81
2022-08-26T02:39:09.080Z,99023.31
2022-08-26T02:41:54.275Z,99022.81
2022-08-26T02:44:39.214Z,99023.34
2022-08-26T02:47:25.167Z,99031.69
2022-08-26T02:50:10.485Z,99025.72
2022-08-26T02:52:56.020Z,99029.91
2022-08-26T02:55:41.699Z,99025.50
2022-08-26T02:58:27.018Z,99026.78
2022-08-26T03:01:29.740Z,99019.78
2022-08-26T03:04:15.427Z,99025.25
2022-08-26T03:07:00.534Z,99017.69
2022-08-26T03:09:45.780Z,99020.06
2022-08-26T03:12:30.587Z,99015.09
2022-08-26T03:15:18.416Z,99023.44
2022-08-26T03:18:04.252Z,99025.50
2022-08-26T03:20:49.097Z,99021.59
2022-08-26T03:23:34.722Z,99024.44
2022-08-26T03:26:19.802Z,99025.47
2022-08-26T03:29:24.860Z,99024.38
2022-08-26T03:32:09.811Z,99018.88
2022-08-26T03:34:56.928Z,99014.91
2022-08-26T03:37:41.900Z,99015.13
2022-08-26T03:40:29.045Z,99017.34
2022-08-26T03:43:15.674Z,99014.34
2022-08-26T03:46:05.775Z,99010.53
2022-08-26T03:48:51.250Z,99009.34
2022-08-26T03:51:38.712Z,99007.63
2022-08-26T03:54:23.979Z,99008.72
2022-08-26T03:57:08.839Z,99010.84
2022-08-26T03:59:53.960Z,99009.13
2022-08-26T04:02:38.889Z,99003.69
2022-08-26T04:05:23.840Z,99005.09
2022-08-26T04:08:08.722Z,99002.56
2022-08-26T04:10:55.103Z,99008.91
2022-08-26T04:13:41.092Z,99004.22
2022-08-26T04:16:27.767Z,99006.28
2022-08-26T04:19:14.676Z,99009.91
2022-08-26T04:22:00.135Z,98997.34
2022-08-26T04:24:45.850Z,99001.75
2022-08-26T04:27:30.634Z,99007.16
2022-08-26T04:30:15.994Z,98998.88
2022-08-26T04:33:03.808Z,98992.78
2022-08-26T04:36:01.912Z,99002.00
2022-08-26T04:38:47.281Z,98998.59
2022-08-26T04:41:32.328Z,99001.47
2022-08-26T04:44:18.095Z,98996.16
2022-08-26T04:47:04.028Z,98998.53
2022-08-26T04:49:48.920Z,98991.81
2022-08-26T04:52:36.314Z,99000.69
2022-08-26T04:55:22.258Z,98994.47
2022-08-26T04:58:24.188Z,99001.94
2022-08-26T05:01:10.520Z,98998.63
2022-08-26T05:03:55.684Z,99000.38
2022-08-26T05:06:40.594Z,98995.75
2022-08-26T05:09:25.768Z,98994.56
2022-08-26T05:12:10.262Z,98996.88
2022-08-26T05:14:55.332Z,98995.81
2022-08-26T05:17:40.206Z,98997.53
2022-08-26T05:20:26.207Z,99000.63
2022-08-26T05:23:11.414Z,98996.03
2022-08-26T05:25:59.405Z,98997.09
2022-08-26T05:28:45.787Z,98995.69
2022-08-26T05:31:33.766Z,98989.66
2022-08-26T05:34:20.299Z,98993.53
2022-08-26T05:37:05.738Z,98996.16
2022-08-26T05:39:51.435Z,98999.25
2022-08-26T05:42:36.327Z,98994.59
2022-08-26T05:45:24.080Z,98989.47
2022-08-26T05:48:09.403Z,98993.03
2022-08-26T05:50:54.363Z,98995.44
2022-08-26T05:53:43.832Z,98993.69
2022-08-26T05:56:40.064Z,98991.00
2022-08-26T05:59:29.028Z,98986.50
2022-08-26T06:02:14.276Z,98992.13
2022-08-26T06:04:59.296Z,98982.16
2022-08-26T06:08:02.700Z,98983.16
2022-08-26T06:10:54.631Z,98984.56
2022-08-26T06:13:40.136Z,98982.28
2022-08-26T06:16:25.195Z,98982.56
2022-08-26T06:21:57.728Z,98978.09
2022-08-26T06:25:02.667Z,98979.34
2022-08-26T06:27:48.356Z,98973.84
2022-08-26T06:30:40.071Z,98980.22
2022-08-26T06:33:28.192Z,98975.72
2022-08-26T06:36:27.037Z,98971.31
2022-08-26T06:39:13.919Z,98970.44
2022-08-26T06:42:00.011Z,98971.75
2022-08-26T06:44:44.999Z,98973.81
2022-08-26T06:47:30.645Z,98975.72
2022-08-26T06:50:16.238Z,98972.16
2022-08-26T06:53:01.910Z,98975.63
2022-08-26T06:55:46.915Z,98971.63
2022-08-26T06:58:39.231Z,98968.03
2022-08-26T07:01:29.136Z,98970.41
2022-08-26T07:04:22.121Z,98968.81
2022-08-26T07:07:10.749Z,98969.25
2022-08-26T07:09:55.964Z,98973.22
2022-08-26T07:12:41.332Z,98963.97
2022-08-26T07:15:31.058Z,98966.25
2022-08-26T07:18:16.718Z,98968.25
2022-08-26T07:21:08.534Z,98967.06
2022-08-26T07:23:58.720Z,98973.16
2022-08-26T07:26:46.185Z,98967.97
2022-08-26T07:29:34.918Z,98966.06
2022-08-26T07:32:26.149Z,98960.56
2022-08-26T07:35:15.872Z,98962.91
2022-08-26T07:38:01.264Z,98963.41
2022-08-26T07:40:50.809Z,98957.63
2022-08-26T07:43:36.921Z,98957.16
2022-08-26T07:46:27.501Z,98954.38
2022-08-26T07:49:17.163Z,98955.59
2022-08-26T07:52:01.942Z,98954.34
2022-08-26T07:54:46.967Z,98956.13
2022-08-26T07:57:32.081Z,98947.56
2022-08-26T08:00:17.272Z,98946.88
2022-08-26T08:03:05.209Z,98940.06
2022-08-26T08:05:50.009Z,98944.03
2022-08-26T08:08:38.459Z,98936.06
2022-08-26T08:11:26.647Z,98939.22
2022-08-26T08:14:12.323Z,98931.75
2022-08-26T08:16:57.418Z,98920.91
2022-08-26T08:19:43.087Z,98928.56
2022-08-26T08:22:28.204Z,98921.47
2022-08-26T08:25:14.637Z,98924.34
2022-08-26T08:28:01.003Z,98932.88
2022-08-26T08:30:46.793Z,98925.75
2022-08-26T08:33:33.300Z,98928.41
2022-08-26T08:36:20.452Z,98917.22
2022-08-26T08:39:08.354Z,98921.44
2022-08-26T08:42:26.550Z,98917.28
2022-08-26T08:45:14.907Z,98924.22
2022-08-26T08:48:07.477Z,98917.38
2022-08-26T08:50:55.978Z,98908.25
2022-08-26T08:53:44.988Z,98900.69
2022-08-26T08:56:47.058Z,98899.16
2022-08-26T08:59:35.116Z,98906.03
2022-08-26T09:02:40.047Z,98899.91
2022-08-26T09:05:39.532Z,98899.50
2022-08-26T09:08:29.711Z,98899.13
2022-08-26T09:11:16.079Z,98896.06
2022-08-26T09:14:02.271Z,98898.00
2022-08-26T09:17:34.867Z,98903.66
2022-08-26T09:20:34.304Z,98889.06
2022-08-26T09:23:19.488Z,98894.00
2022-08-26T09:26:31.018Z,98898.91
2022-08-26T09:29:31.548Z,98894.06
2022-08-26T09:32:24.528Z,98891.84
2022-08-26T09:35:25.680Z,98889.50
2022-08-26T09:38:26.684Z,98884.16
2022-08-26T09:41:27.337Z,98883.25
2022-08-26T09:44:18.327Z,98883.00
2022-08-26T09:47:06.442Z,98881.16
2022-08-26T09:50:12.555Z,98880.25
2022-08-26T09:53:39.807Z,98877.63
2022-08-26T09:56:27.506Z,98875.59
2022-08-26T09:59:14.259Z,98877.31
2022-08-26T10:02:33.705Z,98879.34
2022-08-26T10:05:31.486Z,98861.84
2022-08-26T10:08:23.123Z,98866.84
2022-08-26T10:11:16.490Z,98862.53
2022-08-26T10:14:07.389Z,98856.56
2022-08-26T10:17:05.289Z,98857.63
2022-08-26T10:20:06.173Z,98862.78
2022-08-26T10:23:15.131Z,98870.81
2022-08-26T10:26:24.743Z,98864.16
2022-08-26T10:29:20.896Z,98861.75
2022-08-26T10:32:34.909Z,98858.31
2022-08-26T10:35:23.026Z,98852.47
2022-08-26T10:38:16.387Z,98858.13
2022-08-26T10:41:10.556Z,98858.00
2022-08-26T10:44:02.518Z,98858.53
2022-08-26T10:46:58.137Z,98843.06
2022-08-26T10:49:45.302Z,98846.19
2022-08-26T10:52:39.712Z,98846.72
2022-08-26T10:55:40.419Z,98833.81
2022-08-26T10:58:28.013Z,98837.84
2022-08-26T11:01:42.852Z,98825.09
2022-08-26T11:04:48.205Z,98816.91
2022-08-26T11:07:45.627Z,98818.59
2022-08-26T11:10:42.560Z,98812.72
2022-08-26T11:13:55.690Z,98812.19
2022-08-26T11:16:43.852Z,98816.00
2022-08-26T11:19:59.417Z,98813.75
2022-08-26T11:22:47.813Z,98808.34
2022-08-26T11:25:32.931Z,98809.41
2022-08-26T11:28:35.934Z,98812.69
2022-08-26T11:31:24.671Z,98798.97
2022-08-26T11:34:13.266Z,98804.56
2022-08-26T11:36:59.957Z,98796.78
2022-08-26T11:39:56.845Z,98790.06
2022-08-26T11:42:48.571Z,98794.66
2022-08-26T11:45:35.918Z,98793.03
2022-08-26T11:48:29.128Z,98786.81
2022-08-26T11:51:23.243Z,98784.09
2022-08-26T11:54:29.260Z,98788.69
2022-08-26T11:57:20.776Z,98786.34
2022-08-26T12:00:16.881Z,98783.22
2022-08-26T12:03:07.737Z,98782.94
2022-08-26T12:05:53.788Z,98790.41
2022-08-26T12:08:43.283Z,98793.25
2022-08-26T12:11:32.279Z,98782.94
2022-08-26T12:14:27.673Z,98790.25
2022-08-26T12:17:19.291Z,98773.69
2022-08-26T12:20:17.605Z,98779.00
2022-08-26T12:23:04.496Z,98782.97
2022-08-26T12:26:01.907Z,98774.25
2022-08-26T12:28:51.306Z,98782.03
2022-08-26T12:31:39.457Z,98777.25
2022-08-26T12:34:27.732Z,98768.81
2022-08-26T12:37:14.950Z,98759.00
2022-08-26T12:40:30.890Z,98765.09
2022-08-26T12:43:38.747Z,98767.63
2022-08-26T12:46:27.874Z,98755.97
2022-08-26T12:49:17.861Z,98756.25
2022-08-26T12:52:04.822Z,98762.88
2022-08-26T12:54:59.830Z,98766.41
2022-08-26T12:57:44.428Z,98761.75
2022-08-26T13:00:38.892Z,98761.81
2022-08-26T13:03:27.168Z,98758.22
2022-08-26T13:06:30.717Z,98749.38
2022-08-26T13:09:18.287Z,98749.78
2022-08-26T13:12:03.661Z,98749.28
2022-08-26T13:14:49.970Z,98749.44
2022-08-26T13:17:35.380Z,98744.53
2022-08-26T13:20:20.307Z,98747.53
2022-08-26T13:23:06.203Z,98742.31
2022-08-26T13:25:51.574Z,98748.69
2022-08-26T13:28:37.381Z,98743.09
2022-08-26T13:31:22.781Z,98745.44
2022-08-26T13:34:18.917Z,98743.09
2022-08-26T13:37:04.142Z,98736.28
2022-08-26T13:39:50.566Z,98733.03
2022-08-26T13:42:35.673Z,98734.38
2022-08-26T13:45:20.888Z,98737.34
2022-08-26T13:48:07.209Z,98737.69
2022-08-26T13:50:53.531Z,98736.97
2022-08-26T13:53:38.530Z,98738.50
2022-08-26T13:56:29.039Z,98739.75
2022-08-26T13:59:14.354Z,98737.63
2022-08-26T14:02:02.160Z,98736.59
2022-08-26T14:04:47.113Z,98729.69
2022-08-26T14:07:32.263Z,98726.50
2022-08-26T14:10:17.293Z,98725.44
2022-08-26T14:13:03.387Z,98730.03
2022-08-26T14:15:49.997Z,98729.16
2022-08-26T14:18:42.547Z,98727.66
2022-08-26T14:21:31.331Z,98721.25
2022-08-26T14:24:16.053Z,98726.41
2022-08-26T14:27:01.008Z,98723.56
2022-08-26T14:29:45.965Z,98719.13
2022-08-26T14:32:31.666Z,98722.56
2022-08-26T14:35:19.738Z,98724.56
2022-08-26T14:38:04.533Z,98720.16
2022-08-26T14:40:49.555Z,98727.63
2022-08-26T14:43:34.738Z,98718.91
2022-08-26T14:46:19.813Z,98718.81
2022-08-26T14:49:08.521Z,98727.78
2022-08-26T14:51:55.798Z,98723.16
2022-08-26T14:54:40.725Z,98725.41
2022-08-26T14:57:25.677Z,98726.38
2022-08-26T15:00:11.420Z,98717.91
2022-08-26T15:02:56.645Z,98721.06
2022-08-26T15:05:48.056Z,98715.66
2022-08-26T15:08:36.023Z,98724.44
2022-08-26T15:11:21.863Z,98724.81
2022-08-26T15:14:07.342Z,98719.56
2022-08-26T15:16:55.368Z,98717.88
2022-08-26T15:19:40.665Z,98723.50
2022-08-26T15:22:25.671Z,98722.19
2022-08-26T15:25:14.830Z,98724.56
2022-08-26T15:27:59.864Z,98718.78
2022-08-26T15:30:44.828Z,98722.13
2022-08-26T15:33:30.206Z,98723.00
2022-08-26T15:36:15.199Z,98721.59
2022-08-26T15:39:00.233Z,98720.91
2022-08-26T15:41:45.863Z,98723.91
2022-08-26T15:44:31.089Z,98726.06
2022-08-26T15:47:15.777Z,98726.56
2022-08-26T15:50:00.758Z,98722.22
2022-08-26T15:52:47.274Z,98727.63
2022-08-26T15:55:32.230Z,98728.66
2022-08-26T15:58:17.282Z,98733.78
2022-08-26T16:01:02.526Z,98731.25
2022-08-26T16:03:48.031Z,98730.31
2022-08-26T16:06:35.732Z,98725.66
2022-08-26T16:09:24.344Z,98727.06
2022-08-26T16:12:09.717Z,98733.84
2022-08-26T16:14:55.029Z,98728.66
2022-08-26T16:17:40.122Z,98729.75
2022-08-26T16:20:25.909Z,98726.50
2022-08-26T16:23:10.552Z,98727.06
2022-08-26T16:25:56.438Z,98733.31
2022-08-26T16:28:41.128Z,98735.63
2022-08-26T16:31:28.995Z,98727.97
2022-08-26T16:34:13.777Z,98734.31
2022-08-26T16:36:59.908Z,98733.38
2022-08-26T16:39:45.241Z,98734.25
2022-08-26T16:42:30.517Z,98727.72
2022-08-26T16:45:15.470Z,98735.88
2022-08-26T16:48:00.132Z,98731.63
2022-08-26T16:50:45.251Z,98739.63
2022-08-26T16:53:33.071Z,98739.19
2022-08-26T16:56:21.182Z,98745.09
2022-08-26T16:59:09.936Z,98752.47
2022-08-26T17:01:54.910Z,98749.25
2022-08-26T17:04:40.573Z,98743.91
2022-08-26T17:07:25.921Z,98750.34
2022-08-26T17:10:10.725Z,98754.63
2022-08-26T17:12:56.316Z,98750.47
2022-08-26T17:15:53.383Z,98750.06
2022-08-26T17:18:40.551Z,98749.34
2022-08-26T17:21:27.701Z,98754.47
2022-08-26T17:24:12.873Z,98751.03
2022-08-26T17:26:58.179Z,98757.03
2022-08-26T17:29:43.982Z,98749.03
2022-08-26T17:32:29.211Z,98756.88
2022-08-26T17:35:15.510Z,98758.19
2022-08-26T17:38:00.565Z,98764.63
2022-08-26T17:40:45.398Z,98764.66
2022-08-26T17:43:30.800Z,98758.97
2022-08-26T17:46:15.702Z,98766.84
2022-08-26T17:49:01.274Z,98771.50
2022-08-26T17:51:46.131Z,98768.00
2022-08-26T17:54:31.214Z,98764.78
2022-08-26T17:57:16.607Z,98761.06
2022-08-26T18:00:06.698Z,98770.22
2022-08-26T18:02:54.038Z,98774.75
2022-08-26T18:05:39.535Z,98778.81
2022-08-26T18:08:24.678Z,98774.66
2022-08-26T18:11:13.266Z,98771.28
2022-08-26T18:13:59.664Z,98777.50
2022-08-26T18:16:44.328Z,98775.06
2022-08-26T18:19:29.882Z,98780.16
2022-08-26T18:22:15.770Z,98774.75
2022-08-26T18:25:00.895Z,98778.94
2022-08-26T18:27:45.867Z,98779.56
2022-08-26T18:30:30.845Z,98770.75
2022-08-26T18:33:16.647Z,98769.22
2022-08-26T18:36:02.025Z,98768.13
2022-08-26T18:38:48.027Z,98766.84
2022-08-26T18:41:42.781Z,98771.00
2022-08-26T18:44:27.425Z,98779.47
2022-08-26T18:47:12.554Z,98778.97
2022-08-26T18:49:57.582Z,98778.19
2022-08-26T18:52:43.121Z,98769.53
2022-08-26T18:55:27.869Z,98777.03
2022-08-26T18:58:12.903Z,98781.00
2022-08-26T19:00:57.792Z,98785.13
2022-08-26T19:03:43.068Z,98783.50
2022-08-26T19:06:31.014Z,98780.06
2022-08-26T19:09:18.169Z,98781.88
2022-08-26T19:12:04.160Z,98777.69
2022-08-26T19:14:49.903Z,98775.94
2022-08-26T19:17:34.830Z,98786.84
2022-08-26T19:20:19.601Z,98778.34
2022-08-26T19:23:10.595Z,98777.97
2022-08-26T19:26:07.664Z,98782.56
2022-08-26T19:28:53.160Z,98788.50
2022-08-26T19:31:38.199Z,98782.13
2022-08-26T19:34:23.544Z,98785.91
2022-08-26T19:37:08.182Z,98790.16
2022-08-26T19:39:53.430Z,98792.41
2022-08-26T19:42:38.453Z,98788.16
2022-08-26T19:45:25.227Z,98790.41
2022-08-26T19:48:10.709Z,98796.34
2022-08-26T19:50:55.576Z,98796.72
2022-08-26T19:53:42.930Z,98797.28
2022-08-26T19:56:28.200Z,98795.78
2022-08-26T19:59:13.275Z,98790.03
2022-08-26T20:02:01.446Z,98791.41
2022-08-26T20:04:47.056Z,98791.69
2022-08-26T20:07:32.380Z,98795.38
2022-08-26T20:10:20.844Z,98797.03
2022-08-26T20:13:05.448Z,98792.59
2022-08-26T20:15:53.607Z,98792.84
2022-08-26T20:18:59.092Z,98802.81
2022-08-26T20:21:45.040Z,98796.94
2022-08-26T20:24:31.807Z,98799.06
2022-08-26T20:27:17.400Z,98789.66
2022-08-26T20:30:03.993Z,98794.13
2022-08-26T20:32:49.078Z,98793.16
2022-08-26T20:35:33.898Z,98781.75
2022-08-26T20:38:21.530Z,98789.38
2022-08-26T20:41:07.242Z,98798.56
2022-08-26T20:43:52.977Z,98791.31
2022-08-26T20:46:38.569Z,98792.19
2022-08-26T20:49:23.464Z,98781.81
2022-08-26T20:52:08.461Z,98787.31
2022-08-26T20:54:53.399Z,98786.34
2022-08-26T20:57:38.538Z,98789.06
2022-08-26T21:00:26.401Z,98785.47
2022-08-26T21:03:12.875Z,98779.56
2022-08-26T21:05:58.247Z,98794.81
2022-08-26T21:08:43.483Z,98795.59
2022-08-26T21:11:29.977Z,98799.56
2022-08-26T21:14:16.928Z,98793.47
2022-08-26T21:17:03.655Z,98793.00
2022-08-26T21:19:48.748Z,98794.59
2022-08-26T21:22:33.992Z,98785.59
2022-08-26T21:25:19.418Z,98789.78
2022-08-26T21:28:05.244Z,98791.69
2022-08-26T21:30:50.157Z,98785.78
2022-08-26T21:33:35.461Z,98798.91
2022-08-26T21:36:21.082Z,98790.59
2022-08-26T21:39:11.282Z,98794.53
2022-08-26T21:41:57.374Z,98788.84
2022-08-26T21:44:44.222Z,98786.44
2022-08-26T21:47:31.962Z,98787.91
2022-08-26T21:50:16.990Z,98789.09
2022-08-26T21:53:02.147Z,98781.16
2022-08-26T21:55:47.144Z,98775.09
2022-08-26T21:58:32.948Z,98773.56
2022-08-26T22:01:21.101Z,98778.06
2022-08-26T22:04:08.044Z,98783.66
2022-08-26T22:06:56.993Z,98777.25
2022-08-26T22:09:42.190Z,98781.78
2022-08-26T22:12:29.584Z,98780.91
2022-08-26T22:15:15.205Z,98779.97
2022-08-26T22:18:03.246Z,98779.56
2022-08-26T22:20:48.087Z,98777.09
2022-08-26T22:23:34.907Z,98774.34
2022-08-26T22:26:25.767Z,98775.50
2022-08-26T22:29:11.517Z,98774.78
2022-08-26T22:31:56.647Z,98770.97
2022-08-26T22:34:41.741Z,98767.66
2022-08-26T22:37:26.635Z,98767.94
2022-08-26T22:40:12.924Z,98774.69
2022-08-26T22:43:00.123Z,98762.53
2022-08-26T22:45:47.629Z,98768.50
2022-08-26T22:48:32.680Z,98770.59
2022-08-26T22:51:17.851Z,98767.44
2022-08-26T22:54:02.981Z,98771.03
2022-08-26T22:56:48.432Z,98770.47
2022-08-26T22:59:33.253Z,98768.88
2022-08-26T23:02:18.728Z,98771.94
2022-08-26T23:05:04.069Z,98765.41
2022-08-26T23:07:49.477Z,98768.78
2022-08-26T23:10:36.480Z,98775.81
2022-08-26T23:13:21.455Z,98780.75
2022-08-26T23:16:09.512Z,98767.22
2022-08-26T23:18:54.442Z,98774.56
2022-08-26T23:21:39.737Z,98765.00
2022-08-26T23:24:24.496Z,98775.69
2022-08-26T23:27:09.707Z,98775.19
2022-08-26T23:29:54.770Z,98773.13
2022-08-26T23:32:39.539Z,98772.66
2022-08-26T23:35:25.663Z,98776.88
2022-08-26T23:38:11.804Z,98771.22
2022-08-26T23:40:58.991Z,98760.38
2022-08-26T23:43:44.512Z,98763.84
2022-08-26T23:46:29.761Z,98765.25
2022-08-26T23:49:14.813Z,98766.13
2022-08-26T23:52:17.889Z,98765.69
2022-08-26T23:55:04.174Z,98760.31
2022-08-26T23:57:49.455Z,98764.25
